^^
Station Historical Data
Daily Summary for October 12, 2017 Units:  Both    English   Metric
« Previous Day
Next Day »
Daily Weekly Monthly Yearly Custom
  High: Low: Average:
Temperature: TemperatureF °F /  -17.8 °C 47.5 °F /  8.6 °C 69 °F /  20.6 °C
Dew Point: DewpointF °F /  -17.8 °C -24.2 °F /  -31.2 °C 7.5 °F /  -13.6 °C
Humidity: Humidity% 1% 15%
Wind Speed: WindSpeedMPHmph /  0km/h - 1.4mph /  2.3km/h
Wind Gust: WindSpeedGustMPHmph /  0km/h - -
Wind- - WSW
Pressure: PressureIn in /  0 hPa 29.78 in /  1008.4 hPa -
Precipitation: 0.00 in /  0 mm    
Historical Graphs
 
 
Tabular Data for October 12, 2017
Time Temperature Dew Point Pressure Wind Wind Speed Wind Gust Humidity Rainfall Rate (Hourly) solar Conditions
TemperatureF °F /  -17.8 °C DewpointF °F /  -17.8 °C PressureInin /  0hPa Calm     Humidity% HourlyPrecipInin /  0mm SolarRadiationWatts/m^2 W/m2 Conditions
00:04 57.4 °F /  14.1 °C 25.3 °F /  -3.7 °C 29.85in /  1010.7hPa Calm     29% 0.00in /  0mm 0.0 W/m2
00:09 57.0 °F /  13.9 °C 25.0 °F /  -3.9 °C 29.85in /  1010.7hPa Calm     29% 0.00in /  0mm 0.0 W/m2
00:14 56.8 °F /  13.8 °C 25.7 °F /  -3.5 °C 29.85in /  1010.7hPa Calm     30% 0.00in /  0mm 0.0 W/m2
00:20 56.7 °F /  13.7 °C 25.5 °F /  -3.6 °C 29.85in /  1010.7hPa Calm     30% 0.00in /  0mm 0.0 W/m2
00:25 56.5 °F /  13.6 °C 25.3 °F /  -3.7 °C 29.85in /  1010.7hPa Calm     30% 0.00in /  0mm 0.0 W/m2
00:33 55.9 °F /  13.3 °C 25.0 °F /  -3.9 °C 29.84in /  1010.4hPa Calm     30% 0.00in /  0mm 0.0 W/m2
00:38 55.6 °F /  13.1 °C 25.3 °F /  -3.7 °C 29.84in /  1010.4hPa Calm     31% 0.00in /  0mm 0.0 W/m2
00:41 55.4 °F /  13 °C 25.3 °F /  -3.7 °C 29.84in /  1010.4hPa Calm   1.0mph /  1.6km/h 31% 0.00in /  0mm 0.0 W/m2
00:46 55.0 °F /  12.8 °C 25.0 °F /  -3.9 °C 29.84in /  1010.4hPa Calm     31% 0.00in /  0mm 0.0 W/m2
00:51 54.9 °F /  12.7 °C 25.5 °F /  -3.6 °C 29.84in /  1010.4hPa Calm     32% 0.00in /  0mm 0.0 W/m2
00:57 54.7 °F /  12.6 °C 25.3 °F /  -3.7 °C 29.84in /  1010.4hPa ENE 0.9mph /  1.4km/h 1.0mph /  1.6km/h 32% 0.00in /  0mm 0.0 W/m2
01:02 54.3 °F /  12.4 °C 25.2 °F /  -3.8 °C 29.84in /  1010.4hPa Calm     32% 0.00in /  0mm 0.0 W/m2
01:07 54.1 °F /  12.3 °C 25.0 °F /  -3.9 °C 29.84in /  1010.4hPa Calm     32% 0.00in /  0mm 0.0 W/m2
01:12 53.8 °F /  12.1 °C 25.3 °F /  -3.7 °C 29.84in /  1010.4hPa Calm     33% 0.00in /  0mm 0.0 W/m2
01:17 53.4 °F /  11.9 °C 25.0 °F /  -3.9 °C 29.83in /  1010hPa Calm     33% 0.00in /  0mm 0.0 W/m2
01:22 53.2 °F /  11.8 °C 24.8 °F /  -4 °C 29.83in /  1010hPa Calm     33% 0.00in /  0mm 0.0 W/m2
01:27 52.9 °F /  11.6 °C 25.3 °F /  -3.7 °C 29.83in /  1010hPa Calm     34% 0.00in /  0mm 0.0 W/m2
01:32 52.5 °F /  11.4 °C 25.0 °F /  -3.9 °C 29.83in /  1010hPa Calm     34% 0.00in /  0mm 0.0 W/m2
01:38 52.3 °F /  11.3 °C 25.5 °F /  -3.6 °C 29.83in /  1010hPa Calm     35% 0.00in /  0mm 0.0 W/m2
01:43 52.0 °F /  11.1 °C 25.2 °F /  -3.8 °C 29.83in /  1010hPa Calm   2.0mph /  3.2km/h 35% 0.00in /  0mm 0.0 W/m2
01:48 51.8 °F /  11 °C 25.0 °F /  -3.9 °C 29.83in /  1010hPa Calm   1.0mph /  1.6km/h 35% 0.00in /  0mm 0.0 W/m2
01:53 51.6 °F /  10.9 °C 24.8 °F /  -4 °C 29.82in /  1009.7hPa Calm   1.0mph /  1.6km/h 35% 0.00in /  0mm 0.0 W/m2
01:58 51.6 °F /  10.9 °C 24.8 °F /  -4 °C 29.82in /  1009.7hPa Calm     35% 0.00in /  0mm 0.0 W/m2
02:03 51.6 °F /  10.9 °C 25.5 °F /  -3.6 °C 29.82in /  1009.7hPa Calm     36% 0.00in /  0mm 0.0 W/m2
02:08 51.4 °F /  10.8 °C 25.3 °F /  -3.7 °C 29.82in /  1009.7hPa Calm     36% 0.00in /  0mm 0.0 W/m2
02:13 51.3 °F /  10.7 °C 25.2 °F /  -3.8 °C 29.82in /  1009.7hPa Calm   1.0mph /  1.6km/h 36% 0.00in /  0mm 0.0 W/m2
02:19 51.3 °F /  10.7 °C 25.2 °F /  -3.8 °C 29.82in /  1009.7hPa Calm     36% 0.00in /  0mm 0.0 W/m2
02:24 51.1 °F /  10.6 °C 25.0 °F /  -3.9 °C 29.82in /  1009.7hPa Calm     36% 0.00in /  0mm 0.0 W/m2
02:29 50.7 °F /  10.4 °C 24.8 °F /  -4 °C 29.82in /  1009.7hPa Calm     36% 0.00in /  0mm 0.0 W/m2
02:34 50.7 °F /  10.4 °C 25.3 °F /  -3.7 °C 29.82in /  1009.7hPa Calm     37% 0.00in /  0mm 0.0 W/m2
02:39 50.7 °F /  10.4 °C 25.3 °F /  -3.7 °C 29.82in /  1009.7hPa Calm     37% 0.00in /  0mm 0.0 W/m2
02:44 50.5 °F /  10.3 °C 25.2 °F /  -3.8 °C 29.82in /  1009.7hPa Calm     37% 0.00in /  0mm 0.0 W/m2
02:49 50.2 °F /  10.1 °C 25.5 °F /  -3.6 °C 29.81in /  1009.4hPa Calm     38% 0.00in /  0mm 0.0 W/m2
02:54 49.8 °F /  9.9 °C 25.2 °F /  -3.8 °C 29.81in /  1009.4hPa Calm     38% 0.00in /  0mm 0.0 W/m2
03:00 49.5 °F /  9.7 °C 25.0 °F /  -3.9 °C 29.81in /  1009.4hPa Calm     38% 0.00in /  0mm 0.0 W/m2
03:05 49.5 °F /  9.7 °C 25.0 °F /  -3.9 °C 29.82in /  1009.7hPa Calm     38% 0.00in /  0mm 0.0 W/m2
03:10 49.5 °F /  9.7 °C 25.0 °F /  -3.9 °C 29.82in /  1009.7hPa Calm   1.0mph /  1.6km/h 38% 0.00in /  0mm 0.0 W/m2
03:15 49.5 °F /  9.7 °C 25.0 °F /  -3.9 °C 29.83in /  1010hPa ENE 0.9mph /  1.4km/h 6.0mph /  9.7km/h 38% 0.00in /  0mm 0.0 W/m2
03:25 49.6 °F /  9.8 °C 24.4 °F /  -4.2 °C 29.82in /  1009.7hPa Calm   2.0mph /  3.2km/h 37% 0.00in /  0mm 0.0 W/m2
03:30 49.6 °F /  9.8 °C 24.4 °F /  -4.2 °C 29.82in /  1009.7hPa Calm   3.0mph /  4.8km/h 37% 0.00in /  0mm 0.0 W/m2
03:35 49.6 °F /  9.8 °C 24.4 °F /  -4.2 °C 29.82in /  1009.7hPa Calm   2.0mph /  3.2km/h 37% 0.00in /  0mm 0.0 W/m2
03:41 49.6 °F /  9.8 °C 24.4 °F /  -4.2 °C 29.82in /  1009.7hPa Calm     37% 0.00in /  0mm 0.0 W/m2
03:46 49.5 °F /  9.7 °C 23.5 °F /  -4.7 °C 29.82in /  1009.7hPa Calm   1.0mph /  1.6km/h 36% 0.00in /  0mm 0.0 W/m2
03:51 48.9 °F /  9.4 °C 23.2 °F /  -4.9 °C 29.82in /  1009.7hPa Calm     36% 0.00in /  0mm 0.0 W/m2
03:56 48.7 °F /  9.3 °C 23.5 °F /  -4.7 °C 29.82in /  1009.7hPa Calm     37% 0.00in /  0mm 0.0 W/m2
04:06 48.4 °F /  9.1 °C 23.9 °F /  -4.5 °C 29.82in /  1009.7hPa Calm     38% 0.00in /  0mm 0.0 W/m2
04:11 48.0 °F /  8.9 °C 23.5 °F /  -4.7 °C 29.82in /  1009.7hPa Calm     38% 0.00in /  0mm 0.0 W/m2
04:16 47.8 °F /  8.8 °C 23.5 °F /  -4.7 °C 29.82in /  1009.7hPa Calm     38% 0.00in /  0mm 0.0 W/m2
04:22 47.7 °F /  8.7 °C 23.4 °F /  -4.8 °C 29.83in /  1010hPa Calm   1.0mph /  1.6km/h 38% 0.00in /  0mm 0.0 W/m2
04:27 47.7 °F /  8.7 °C 22.6 °F /  -5.2 °C 29.83in /  1010hPa Calm   1.0mph /  1.6km/h 37% 0.00in /  0mm 0.0 W/m2
04:32 47.5 °F /  8.6 °C 21.9 °F /  -5.6 °C 29.83in /  1010hPa Calm   2.0mph /  3.2km/h 36% 0.00in /  0mm 0.0 W/m2
04:37 47.7 °F /  8.7 °C 21.4 °F /  -5.9 °C 29.83in /  1010hPa Calm   1.0mph /  1.6km/h 35% 0.00in /  0mm 0.0 W/m2
04:42 47.7 °F /  8.7 °C 20.7 °F /  -6.3 °C 29.83in /  1010hPa Calm     34% 0.00in /  0mm 0.0 W/m2
04:47 47.7 °F /  8.7 °C 19.9 °F /  -6.7 °C 29.83in /  1010hPa Calm     33% 0.00in /  0mm 0.0 W/m2
04:52 47.7 °F /  8.7 °C 19.9 °F /  -6.7 °C 29.83in /  1010hPa Calm   3.0mph /  4.8km/h 33% 0.00in /  0mm 0.0 W/m2
04:57 47.8 °F /  8.8 °C 20.1 °F /  -6.6 °C 29.83in /  1010hPa Calm     33% 0.00in /  0mm 0.0 W/m2
05:03 47.8 °F /  8.8 °C 19.4 °F /  -7 °C 29.83in /  1010hPa Calm     32% 0.00in /  0mm 0.0 W/m2
05:08 47.7 °F /  8.7 °C 18.5 °F /  -7.5 °C 29.83in /  1010hPa SE 0.9mph /  1.4km/h 1.0mph /  1.6km/h 31% 0.00in /  0mm 0.0 W/m2
05:15 47.7 °F /  8.7 °C 16.2 °F /  -8.8 °C 29.83in /  1010hPa East 0.9mph /  1.4km/h 1.0mph /  1.6km/h 28% 0.00in /  0mm 0.0 W/m2
05:20 47.7 °F /  8.7 °C 16.9 °F /  -8.4 °C 29.83in /  1010hPa Calm     29% 0.00in /  0mm 0.0 W/m2
05:25 47.5 °F /  8.6 °C 18.3 °F /  -7.6 °C 29.84in /  1010.4hPa Calm     31% 0.00in /  0mm 0.0 W/m2
05:30 47.7 °F /  8.7 °C 17.8 °F /  -7.9 °C 29.83in /  1010hPa Calm     30% 0.00in /  0mm 0.0 W/m2
05:35 47.7 °F /  8.7 °C 18.5 °F /  -7.5 °C 29.84in /  1010.4hPa Calm     31% 0.00in /  0mm 0.0 W/m2
05:45 48.0 °F /  8.9 °C 18.9 °F /  -7.3 °C 29.84in /  1010.4hPa Calm     31% 0.00in /  0mm 0.0 W/m2
05:50 48.2 °F /  9 °C 18.1 °F /  -7.7 °C 29.84in /  1010.4hPa Calm   1.0mph /  1.6km/h 30% 0.00in /  0mm 0.0 W/m2
05:55 48.4 °F /  9.1 °C 21.4 °F /  -5.9 °C 29.84in /  1010.4hPa Calm   3.0mph /  4.8km/h 34% 0.00in /  0mm 0.0 W/m2
06:00 48.9 °F /  9.4 °C 22.5 °F /  -5.3 °C 29.84in /  1010.4hPa Calm   4.0mph /  6.4km/h 35% 0.00in /  0mm 0.0 W/m2
06:05 49.8 °F /  9.9 °C 23.9 °F /  -4.5 °C 29.85in /  1010.7hPa SE 2.0mph /  3.2km/h 5.0mph /  8km/h 36% 0.00in /  0mm 0.0 W/m2
06:06 50.2 °F /  10.1 °C 24.3 °F /  -4.3 °C 29.85in /  1010.7hPa SSE 0.9mph /  1.4km/h 3.0mph /  4.8km/h 36% 0.00in /  0mm 0.0 W/m2
06:11 51.1 °F /  10.6 °C 24.4 °F /  -4.2 °C 29.84in /  1010.4hPa Calm   5.0mph /  8km/h 35% 0.00in /  0mm 0.0 W/m2
06:16 52.0 °F /  11.1 °C 25.2 °F /  -3.8 °C 29.85in /  1010.7hPa Calm     35% 0.00in /  0mm 0.0 W/m2
06:22 52.3 °F /  11.3 °C 24.8 °F /  -4 °C 29.85in /  1010.7hPa Calm   2.0mph /  3.2km/h 34% 0.00in /  0mm 0.0 W/m2
06:27 52.3 °F /  11.3 °C 20.1 °F /  -6.6 °C 29.85in /  1010.7hPa Calm   1.0mph /  1.6km/h 28% 0.00in /  0mm 5.0 W/m2
06:32 52.3 °F /  11.3 °C 21.0 °F /  -6.1 °C 29.85in /  1010.7hPa Calm     29% 0.00in /  0mm 7.0 W/m2
06:37 52.0 °F /  11.1 °C 21.6 °F /  -5.8 °C 29.85in /  1010.7hPa Calm     30% 0.00in /  0mm 9.0 W/m2
06:42 51.8 °F /  11 °C 21.4 °F /  -5.9 °C 29.85in /  1010.7hPa Calm     30% 0.00in /  0mm 11.0 W/m2
06:47 51.4 °F /  10.8 °C 12.7 °F /  -10.7 °C 29.85in /  1010.7hPa Calm   3.0mph /  4.8km/h 21% 0.00in /  0mm 12.0 W/m2
06:52 51.3 °F /  10.7 °C 11.5 °F /  -11.4 °C 29.85in /  1010.7hPa NE 0.9mph /  1.4km/h 1.0mph /  1.6km/h 20% 0.00in /  0mm 12.0 W/m2
06:57 51.3 °F /  10.7 °C 10.4 °F /  -12 °C 29.85in /  1010.7hPa Calm     19% 0.00in /  0mm 14.0 W/m2
07:02 51.3 °F /  10.7 °C 13.6 °F /  -10.2 °C 29.86in /  1011.1hPa Calm   1.0mph /  1.6km/h 22% 0.00in /  0mm 16.0 W/m2
07:07 51.4 °F /  10.8 °C 17.6 °F /  -8 °C 29.85in /  1010.7hPa SSE 0.9mph /  1.4km/h 4.0mph /  6.4km/h 26% 0.00in /  0mm 18.0 W/m2
07:13 52.3 °F /  11.3 °C 22.6 °F /  -5.2 °C 29.86in /  1011.1hPa Calm   6.0mph /  9.7km/h 31% 0.00in /  0mm 19.0 W/m2
07:19 53.8 °F /  12.1 °C 23.9 °F /  -4.5 °C 29.86in /  1011.1hPa SE 0.9mph /  1.4km/h 4.0mph /  6.4km/h 31% 0.00in /  0mm 19.0 W/m2
07:24 55.0 °F /  12.8 °C 24.1 °F /  -4.4 °C 29.86in /  1011.1hPa Calm   3.0mph /  4.8km/h 30% 0.00in /  0mm 21.0 W/m2
07:29 55.9 °F /  13.3 °C 24.1 °F /  -4.4 °C 29.86in /  1011.1hPa SE 0.9mph /  1.4km/h 5.0mph /  8km/h 29% 0.00in /  0mm 23.0 W/m2
07:34 56.7 °F /  13.7 °C 23.9 °F /  -4.5 °C 29.86in /  1011.1hPa Calm   2.0mph /  3.2km/h 28% 0.00in /  0mm 26.0 W/m2
07:39 57.4 °F /  14.1 °C 23.7 °F /  -4.6 °C 29.86in /  1011.1hPa SSE 0.9mph /  1.4km/h 2.0mph /  3.2km/h 27% 0.00in /  0mm 26.0 W/m2
07:44 58.1 °F /  14.5 °C 24.3 °F /  -4.3 °C 29.87in /  1011.4hPa SE 2.0mph /  3.2km/h 5.0mph /  8km/h 27% 0.00in /  0mm 26.0 W/m2
07:49 58.8 °F /  14.9 °C 17.8 °F /  -7.9 °C 29.87in /  1011.4hPa Calm   1.0mph /  1.6km/h 20% 0.00in /  0mm 35.0 W/m2
07:54 59.4 °F /  15.2 °C 15.8 °F /  -9 °C 29.87in /  1011.4hPa Calm   1.0mph /  1.6km/h 18% 0.00in /  0mm 28.0 W/m2
07:59 59.7 °F /  15.4 °C 12.0 °F /  -11.1 °C 29.87in /  1011.4hPa Calm   1.0mph /  1.6km/h 15% 0.00in /  0mm 26.0 W/m2
08:04 60.4 °F /  15.8 °C 9.3 °F /  -12.6 °C 29.87in /  1011.4hPa Calm   1.0mph /  1.6km/h 13% 0.00in /  0mm 28.0 W/m2
08:10 61.0 °F /  16.1 °C 8.1 °F /  -13.3 °C 29.87in /  1011.4hPa Calm   1.0mph /  1.6km/h 12% 0.00in /  0mm 28.0 W/m2
08:15 61.5 °F /  16.4 °C 8.4 °F /  -13.1 °C 29.87in /  1011.4hPa Calm   1.0mph /  1.6km/h 12% 0.00in /  0mm 32.0 W/m2
08:20 62.2 °F /  16.8 °C 9.0 °F /  -12.8 °C 29.87in /  1011.4hPa Calm     12% 0.00in /  0mm 33.0 W/m2
08:25 63.0 °F /  17.2 °C 11.3 °F /  -11.5 °C 29.87in /  1011.4hPa SSE 0.9mph /  1.4km/h 2.0mph /  3.2km/h 13% 0.00in /  0mm 93.0 W/m2
08:30 63.9 °F /  17.7 °C 12.0 °F /  -11.1 °C 29.87in /  1011.4hPa East 0.9mph /  1.4km/h 2.0mph /  3.2km/h 13% 0.00in /  0mm 478.0 W/m2
08:35 64.8 °F /  18.2 °C 14.4 °F /  -9.8 °C 29.87in /  1011.4hPa Calm   1.0mph /  1.6km/h 14% 0.00in /  0mm 496.0 W/m2
08:40 65.7 °F /  18.7 °C 15.1 °F /  -9.4 °C 29.87in /  1011.4hPa ESE 0.9mph /  1.4km/h 3.0mph /  4.8km/h 14% 0.00in /  0mm 524.0 W/m2
08:45 66.7 °F /  19.3 °C 16.0 °F /  -8.9 °C 29.87in /  1011.4hPa SE 0.9mph /  1.4km/h 3.0mph /  4.8km/h 14% 0.00in /  0mm 545.0 W/m2
08:51 67.6 °F /  19.8 °C 13.3 °F /  -10.4 °C 29.87in /  1011.4hPa Calm   1.0mph /  1.6km/h 12% 0.00in /  0mm 563.0 W/m2
08:56 68.7 °F /  20.4 °C 12.0 °F /  -11.1 °C 29.87in /  1011.4hPa SSE 0.9mph /  1.4km/h 4.0mph /  6.4km/h 11% 0.00in /  0mm 568.0 W/m2
09:01 69.6 °F /  20.9 °C 12.7 °F /  -10.7 °C 29.88in /  1011.7hPa Calm   2.0mph /  3.2km/h 11% 0.00in /  0mm 596.0 W/m2
09:06 70.5 °F /  21.4 °C 9.0 °F /  -12.8 °C 29.88in /  1011.7hPa Calm     9% 0.00in /  0mm 628.0 W/m2
09:11 71.4 °F /  21.9 °C 9.7 °F /  -12.4 °C 29.87in /  1011.4hPa Calm   2.0mph /  3.2km/h 9% 0.00in /  0mm 633.0 W/m2
09:16 72.7 °F /  22.6 °C 7.9 °F /  -13.4 °C 29.88in /  1011.7hPa Calm   1.0mph /  1.6km/h 8% 0.00in /  0mm 659.0 W/m2
09:21 74.1 °F /  23.4 °C -1.1 °F /  -18.4 °C 29.87in /  1011.4hPa NNW 0.9mph /  1.4km/h 2.0mph /  3.2km/h 5% 0.00in /  0mm 677.0 W/m2
09:26 74.8 °F /  23.8 °C 3.2 °F /  -16 °C 29.87in /  1011.4hPa Calm   1.0mph /  1.6km/h 6% 0.00in /  0mm 693.0 W/m2
09:37 76.6 °F /  24.8 °C 0.7 °F /  -17.4 °C 29.88in /  1011.7hPa Calm   2.0mph /  3.2km/h 5% 0.00in /  0mm 728.0 W/m2
09:42 77.4 °F /  25.2 °C 5.0 °F /  -15 °C 29.87in /  1011.4hPa NNW 2.0mph /  3.2km/h 4.0mph /  6.4km/h 6% 0.00in /  0mm 744.0 W/m2
09:47 77.7 °F /  25.4 °C 5.4 °F /  -14.8 °C 29.87in /  1011.4hPa WNW 2.0mph /  3.2km/h 5.0mph /  8km/h 6% 0.00in /  0mm 761.0 W/m2
09:52 77.5 °F /  25.3 °C 1.2 °F /  -17.1 °C 29.87in /  1011.4hPa West 0.9mph /  1.4km/h 7.0mph /  11.3km/h 5% 0.00in /  0mm 773.0 W/m2
09:57 77.7 °F /  25.4 °C 8.8 °F /  -12.9 °C 29.87in /  1011.4hPa Calm   5.0mph /  8km/h 7% 0.00in /  0mm 784.0 W/m2
10:02 78.1 °F /  25.6 °C 12.0 °F /  -11.1 °C 29.87in /  1011.4hPa Calm   5.0mph /  8km/h 8% 0.00in /  0mm 795.0 W/m2
10:12 79.2 °F /  26.2 °C 9.9 °F /  -12.3 °C 29.87in /  1011.4hPa Calm   7.0mph /  11.3km/h 7% 0.00in /  0mm 828.0 W/m2
10:17 79.5 °F /  26.4 °C 10.0 °F /  -12.2 °C 29.87in /  1011.4hPa NW 4.9mph /  7.9km/h 5.0mph /  8km/h 7% 0.00in /  0mm 844.0 W/m2
10:23 79.7 °F /  26.5 °C 10.2 °F /  -12.1 °C 29.87in /  1011.4hPa NNW 6.9mph /  11.1km/h 7.0mph /  11.3km/h 7% 0.00in /  0mm 853.0 W/m2
10:29 80.1 °F /  26.7 °C 13.5 °F /  -10.3 °C 29.87in /  1011.4hPa NW 0.9mph /  1.4km/h 5.0mph /  8km/h 8% 0.00in /  0mm 865.0 W/m2
10:34 80.2 °F /  26.8 °C 16.3 °F /  -8.7 °C 29.87in /  1011.4hPa West 0.9mph /  1.4km/h 7.0mph /  11.3km/h 9% 0.00in /  0mm 875.0 W/m2
10:39 80.6 °F /  27 °C 13.8 °F /  -10.1 °C 29.87in /  1011.4hPa NW 2.0mph /  3.2km/h 5.0mph /  8km/h 8% 0.00in /  0mm 884.0 W/m2
10:45 81.3 °F /  27.4 °C 17.1 °F /  -8.3 °C 29.86in /  1011.1hPa NW 2.0mph /  3.2km/h 14.0mph /  22.5km/h 9% 0.00in /  0mm 905.0 W/m2
10:50 81.5 °F /  27.5 °C 19.8 °F /  -6.8 °C 29.86in /  1011.1hPa North 8.1mph /  13km/h 12.0mph /  19.3km/h 10% 0.00in /  0mm 921.0 W/m2
11:01 82.0 °F /  27.8 °C 20.1 °F /  -6.6 °C 29.85in /  1010.7hPa NNW 4.9mph /  7.9km/h 10.0mph /  16.1km/h 10% 0.00in /  0mm 933.0 W/m2
11:06 82.6 °F /  28.1 °C 20.5 °F /  -6.4 °C 29.85in /  1010.7hPa Calm   13.0mph /  20.9km/h 10% 0.00in /  0mm 944.0 W/m2
11:11 82.8 °F /  28.2 °C 20.7 °F /  -6.3 °C 29.85in /  1010.7hPa North 2.9mph /  4.7km/h 8.0mph /  12.9km/h 10% 0.00in /  0mm 949.0 W/m2
11:16 83.3 °F /  28.5 °C 21.0 °F /  -6.1 °C 29.85in /  1010.7hPa West 2.0mph /  3.2km/h 13.0mph /  20.9km/h 10% 0.00in /  0mm 958.0 W/m2
11:22 83.7 °F /  28.7 °C 21.4 °F /  -5.9 °C 29.85in /  1010.7hPa NNW 11.0mph /  17.7km/h 15.0mph /  24.1km/h 10% 0.00in /  0mm 969.0 W/m2
11:27 83.5 °F /  28.6 °C 21.2 °F /  -6 °C 29.84in /  1010.4hPa WNW 2.0mph /  3.2km/h 10.0mph /  16.1km/h 10% 0.00in /  0mm 974.0 W/m2
11:32 83.7 °F /  28.7 °C 21.4 °F /  -5.9 °C 29.84in /  1010.4hPa North 6.0mph /  9.7km/h 14.0mph /  22.5km/h 10% 0.00in /  0mm 974.0 W/m2
11:38 83.7 °F /  28.7 °C 18.9 °F /  -7.3 °C 29.84in /  1010.4hPa WNW 0.9mph /  1.4km/h 15.0mph /  24.1km/h 9% 0.00in /  0mm 974.0 W/m2
11:43 84.0 °F /  28.9 °C 19.0 °F /  -7.2 °C 29.84in /  1010.4hPa NW 0.9mph /  1.4km/h 10.0mph /  16.1km/h 9% 0.00in /  0mm 986.0 W/m2
11:49 84.6 °F /  29.2 °C 19.6 °F /  -6.9 °C 29.84in /  1010.4hPa WSW 0.9mph /  1.4km/h 7.0mph /  11.3km/h 9% 0.00in /  0mm 986.0 W/m2
11:54 84.7 °F /  29.3 °C 19.6 °F /  -6.9 °C 29.84in /  1010.4hPa NW 2.9mph /  4.7km/h 14.0mph /  22.5km/h 9% 0.00in /  0mm 993.0 W/m2
12:00 84.7 °F /  29.3 °C 16.9 °F /  -8.4 °C 29.83in /  1010hPa West 6.9mph /  11.1km/h 11.0mph /  17.7km/h 8% 0.00in /  0mm 1005.0 W/m2
12:05 85.1 °F /  29.5 °C 17.2 °F /  -8.2 °C 29.83in /  1010hPa WSW 4.9mph /  7.9km/h 9.0mph /  14.5km/h 8% 0.00in /  0mm 1000.0 W/m2
12:10 85.8 °F /  29.9 °C 17.8 °F /  -7.9 °C 29.83in /  1010hPa WNW 4.9mph /  7.9km/h 9.0mph /  14.5km/h 8% 0.00in /  0mm 1009.0 W/m2
12:15 85.3 °F /  29.6 °C 17.2 °F /  -8.2 °C 29.83in /  1010hPa West 2.9mph /  4.7km/h 10.0mph /  16.1km/h 8% 0.00in /  0mm 1023.0 W/m2
12:20 84.7 °F /  29.3 °C 13.8 °F /  -10.1 °C 29.83in /  1010hPa West 6.0mph /  9.7km/h 12.0mph /  19.3km/h 7% 0.00in /  0mm 1023.0 W/m2
12:26 84.9 °F /  29.4 °C 14.0 °F /  -10 °C 29.83in /  1010hPa West 2.0mph /  3.2km/h 7.0mph /  11.3km/h 7% 0.00in /  0mm 1011.0 W/m2
12:32 85.3 °F /  29.6 °C 14.2 °F /  -9.9 °C 29.83in /  1010hPa West 4.9mph /  7.9km/h 10.0mph /  16.1km/h 7% 0.00in /  0mm 1027.0 W/m2
12:42 85.5 °F /  29.7 °C 17.4 °F /  -8.1 °C 29.83in /  1010hPa North 4.0mph /  6.4km/h 11.0mph /  17.7km/h 8% 0.00in /  0mm 1030.0 W/m2
12:47 85.8 °F /  29.9 °C 14.7 °F /  -9.6 °C 29.83in /  1010hPa WNW 2.9mph /  4.7km/h 15.0mph /  24.1km/h 7% 0.00in /  0mm 1032.0 W/m2
12:52 85.8 °F /  29.9 °C 11.1 °F /  -11.6 °C 29.83in /  1010hPa WNW 2.9mph /  4.7km/h 10.0mph /  16.1km/h 6% 0.00in /  0mm 1034.0 W/m2
12:58 85.8 °F /  29.9 °C 14.7 °F /  -9.6 °C 29.82in /  1009.7hPa WNW 0.9mph /  1.4km/h 12.0mph /  19.3km/h 7% 0.00in /  0mm 1023.0 W/m2
13:03 86.0 °F /  30 °C 11.3 °F /  -11.5 °C 29.82in /  1009.7hPa NNW 6.0mph /  9.7km/h 13.0mph /  20.9km/h 6% 0.00in /  0mm 1020.0 W/m2
13:08 86.2 °F /  30.1 °C 11.5 °F /  -11.4 °C 29.82in /  1009.7hPa NNW 2.9mph /  4.7km/h 10.0mph /  16.1km/h 6% 0.00in /  0mm 1018.0 W/m2
13:14 86.5 °F /  30.3 °C 11.7 °F /  -11.3 °C 29.81in /  1009.4hPa West 0.9mph /  1.4km/h 10.0mph /  16.1km/h 6% 0.00in /  0mm 1011.0 W/m2
13:19 87.1 °F /  30.6 °C 12.0 °F /  -11.1 °C 29.81in /  1009.4hPa WNW 2.0mph /  3.2km/h 9.0mph /  14.5km/h 6% 0.00in /  0mm 1009.0 W/m2
13:24 86.7 °F /  30.4 °C 7.7 °F /  -13.5 °C 29.81in /  1009.4hPa Calm   7.0mph /  11.3km/h 5% 0.00in /  0mm 1002.0 W/m2
13:30 86.9 °F /  30.5 °C 7.9 °F /  -13.4 °C 29.80in /  1009hPa West 6.0mph /  9.7km/h 14.0mph /  22.5km/h 5% 0.00in /  0mm 998.0 W/m2
13:35 86.5 °F /  30.3 °C 2.7 °F /  -16.3 °C 29.80in /  1009hPa West 10.1mph /  16.3km/h 10.1mph /  16.3km/h 4% 0.00in /  0mm 993.0 W/m2
13:40 86.5 °F /  30.3 °C 2.7 °F /  -16.3 °C 29.80in /  1009hPa West 6.0mph /  9.7km/h 10.0mph /  16.1km/h 4% 0.00in /  0mm 983.0 W/m2
13:46 86.7 °F /  30.4 °C 7.7 °F /  -13.5 °C 29.80in /  1009hPa West 6.0mph /  9.7km/h 8.0mph /  12.9km/h 5% 0.00in /  0mm 977.0 W/m2
13:51 86.7 °F /  30.4 °C 7.7 °F /  -13.5 °C 29.80in /  1009hPa North 6.0mph /  9.7km/h 10.0mph /  16.1km/h 5% 0.00in /  0mm 970.0 W/m2
13:56 87.1 °F /  30.6 °C 8.1 °F /  -13.3 °C 29.80in /  1009hPa West 2.0mph /  3.2km/h 5.0mph /  8km/h 5% 0.00in /  0mm 960.0 W/m2
14:01 87.4 °F /  30.8 °C 8.2 °F /  -13.2 °C 29.80in /  1009hPa North 0.9mph /  1.4km/h 5.0mph /  8km/h 5% 0.00in /  0mm 946.0 W/m2
14:06 87.8 °F /  31 °C 8.4 °F /  -13.1 °C 29.79in /  1008.7hPa Calm   8.0mph /  12.9km/h 5% 0.00in /  0mm 889.0 W/m2
14:12 88.0 °F /  31.1 °C -2.4 °F /  -19.1 °C 29.79in /  1008.7hPa NW 2.9mph /  4.7km/h 7.0mph /  11.3km/h 3% 0.00in /  0mm 942.0 W/m2
14:17 88.0 °F /  31.1 °C 3.7 °F /  -15.7 °C 29.79in /  1008.7hPa West 0.9mph /  1.4km/h 10.0mph /  16.1km/h 4% 0.00in /  0mm 905.0 W/m2
14:28 88.0 °F /  31.1 °C 3.7 °F /  -15.7 °C 29.79in /  1008.7hPa NW 4.9mph /  7.9km/h 9.0mph /  14.5km/h 4% 0.00in /  0mm 898.0 W/m2
14:33 88.2 °F /  31.2 °C 3.9 °F /  -15.6 °C 29.79in /  1008.7hPa NW 4.0mph /  6.4km/h 5.0mph /  8km/h 4% 0.00in /  0mm 886.0 W/m2
14:38 88.5 °F /  31.4 °C -10.5 °F /  -23.6 °C 29.79in /  1008.7hPa WSW 2.9mph /  4.7km/h 12.0mph /  19.3km/h 2% 0.00in /  0mm 884.0 W/m2
14:44 88.5 °F /  31.4 °C -10.5 °F /  -23.6 °C 29.79in /  1008.7hPa NW 8.9mph /  14.3km/h 11.0mph /  17.7km/h 2% 0.00in /  0mm 860.0 W/m2
14:49 88.3 °F /  31.3 °C -10.5 °F /  -23.6 °C 29.78in /  1008.4hPa WNW 0.9mph /  1.4km/h 7.0mph /  11.3km/h 2% 0.00in /  0mm 851.0 W/m2
14:54 88.7 °F /  31.5 °C -10.3 °F /  -23.5 °C 29.78in /  1008.4hPa NW 2.0mph /  3.2km/h 11.0mph /  17.7km/h 2% 0.00in /  0mm 842.0 W/m2
14:59 89.1 °F /  31.7 °C -10.1 °F /  -23.4 °C 29.79in /  1008.7hPa NNW 0.9mph /  1.4km/h 8.0mph /  12.9km/h 2% 0.00in /  0mm 826.0 W/m2
15:04 89.4 °F /  31.9 °C -9.9 °F /  -23.3 °C 29.78in /  1008.4hPa Calm   6.0mph /  9.7km/h 2% 0.00in /  0mm 812.0 W/m2
15:09 89.4 °F /  31.9 °C -23.4 °F /  -30.8 °C 29.78in /  1008.4hPa Calm   9.0mph /  14.5km/h 1% 0.00in /  0mm 800.0 W/m2
15:14 89.6 °F /  32 °C -23.3 °F /  -30.7 °C 29.78in /  1008.4hPa WNW 8.1mph /  13km/h 9.0mph /  14.5km/h 1% 0.00in /  0mm 789.0 W/m2
15:19 88.7 °F /  31.5 °C -23.8 °F /  -31 °C 29.78in /  1008.4hPa WNW 2.9mph /  4.7km/h 9.0mph /  14.5km/h 1% 0.00in /  0mm 775.0 W/m2
15:24 88.2 °F /  31.2 °C -24.2 °F /  -31.2 °C 29.78in /  1008.4hPa West 4.0mph /  6.4km/h 11.0mph /  17.7km/h 1% 0.00in /  0mm 759.0 W/m2
15:29 88.2 °F /  31.2 °C -24.2 °F /  -31.2 °C 29.78in /  1008.4hPa WSW 2.0mph /  3.2km/h 9.0mph /  14.5km/h 1% 0.00in /  0mm 740.0 W/m2
15:34 88.5 °F /  31.4 °C -24.0 °F /  -31.1 °C 29.78in /  1008.4hPa NNW 2.0mph /  3.2km/h 13.0mph /  20.9km/h 1% 0.00in /  0mm 724.0 W/m2
15:39 88.3 °F /  31.3 °C -24.0 °F /  -31.1 °C 29.78in /  1008.4hPa NNW 2.9mph /  4.7km/h 8.0mph /  12.9km/h 1% 0.00in /  0mm 707.0 W/m2
15:44 88.2 °F /  31.2 °C -24.2 °F /  -31.2 °C 29.78in /  1008.4hPa West 2.0mph /  3.2km/h 9.0mph /  14.5km/h 1% 0.00in /  0mm 694.0 W/m2
15:50 88.5 °F /  31.4 °C -24.0 °F /  -31.1 °C 29.78in /  1008.4hPa WNW 2.0mph /  3.2km/h 9.0mph /  14.5km/h 1% 0.00in /  0mm 673.0 W/m2
15:55 89.1 °F /  31.7 °C -23.6 °F /  -30.9 °C 29.78in /  1008.4hPa NW 0.9mph /  1.4km/h 7.0mph /  11.3km/h 1% 0.00in /  0mm 654.0 W/m2
16:00 89.2 °F /  31.8 °C -23.4 °F /  -30.8 °C 29.78in /  1008.4hPa WNW 0.9mph /  1.4km/h 9.0mph /  14.5km/h 1% 0.00in /  0mm 642.0 W/m2
16:05 89.4 °F /  31.9 °C -23.4 °F /  -30.8 °C 29.78in /  1008.4hPa Calm   8.0mph /  12.9km/h 1% 0.00in /  0mm 624.0 W/m2
16:10 89.8 °F /  32.1 °C -23.3 °F /  -30.7 °C 29.78in /  1008.4hPa WNW 0.9mph /  1.4km/h 8.0mph /  12.9km/h 1% 0.00in /  0mm 606.0 W/m2
16:15 89.2 °F /  31.8 °C -23.4 °F /  -30.8 °C 29.78in /  1008.4hPa WNW 2.9mph /  4.7km/h 8.0mph /  12.9km/h 1% 0.00in /  0mm 587.0 W/m2
16:20 89.1 °F /  31.7 °C -23.6 °F /  -30.9 °C 29.78in /  1008.4hPa NW 0.9mph /  1.4km/h 3.0mph /  4.8km/h 1% 0.00in /  0mm 564.0 W/m2
16:25 89.4 °F /  31.9 °C -23.4 °F /  -30.8 °C 29.78in /  1008.4hPa WNW 2.9mph /  4.7km/h 8.0mph /  12.9km/h 1% 0.00in /  0mm 550.0 W/m2
16:31 89.1 °F /  31.7 °C -23.6 °F /  -30.9 °C 29.78in /  1008.4hPa NNW 0.9mph /  1.4km/h 5.0mph /  8km/h 1% 0.00in /  0mm 524.0 W/m2
16:36 89.2 °F /  31.8 °C -23.4 °F /  -30.8 °C 29.78in /  1008.4hPa West 4.9mph /  7.9km/h 7.0mph /  11.3km/h 1% 0.00in /  0mm 508.0 W/m2
16:41 89.1 °F /  31.7 °C -23.6 °F /  -30.9 °C 29.78in /  1008.4hPa WSW 0.9mph /  1.4km/h 15.0mph /  24.1km/h 1% 0.00in /  0mm 489.0 W/m2
16:46 88.9 °F /  31.6 °C -23.8 °F /  -31 °C 29.78in /  1008.4hPa NW 6.0mph /  9.7km/h 6.0mph /  9.7km/h 1% 0.00in /  0mm 468.0 W/m2
16:51 88.9 °F /  31.6 °C -23.8 °F /  -31 °C 29.78in /  1008.4hPa NW 2.9mph /  4.7km/h 7.0mph /  11.3km/h 1% 0.00in /  0mm 448.0 W/m2
16:56 88.9 °F /  31.6 °C -23.8 °F /  -31 °C 29.78in /  1008.4hPa West 0.9mph /  1.4km/h 8.0mph /  12.9km/h 1% 0.00in /  0mm 427.0 W/m2
17:01 88.5 °F /  31.4 °C -10.5 °F /  -23.6 °C 29.78in /  1008.4hPa WNW 2.0mph /  3.2km/h 9.0mph /  14.5km/h 2% 0.00in /  0mm 408.0 W/m2
17:06 88.5 °F /  31.4 °C -10.5 °F /  -23.6 °C 29.79in /  1008.7hPa West 4.9mph /  7.9km/h 11.0mph /  17.7km/h 2% 0.00in /  0mm 388.0 W/m2
17:12 88.5 °F /  31.4 °C -10.5 °F /  -23.6 °C 29.79in /  1008.7hPa WNW 0.9mph /  1.4km/h 5.0mph /  8km/h 2% 0.00in /  0mm 362.0 W/m2
17:17 88.3 °F /  31.3 °C -24.0 °F /  -31.1 °C 29.79in /  1008.7hPa WNW 2.0mph /  3.2km/h 5.0mph /  8km/h 1% 0.00in /  0mm 345.0 W/m2
17:22 88.2 °F /  31.2 °C -10.7 °F /  -23.7 °C 29.79in /  1008.7hPa WSW 4.0mph /  6.4km/h 8.0mph /  12.9km/h 2% 0.00in /  0mm 325.0 W/m2
17:28 86.7 °F /  30.4 °C -11.6 °F /  -24.2 °C 29.79in /  1008.7hPa SW 2.0mph /  3.2km/h 13.0mph /  20.9km/h 2% 0.00in /  0mm 301.0 W/m2
17:33 85.8 °F /  29.9 °C -12.1 °F /  -24.5 °C 29.79in /  1008.7hPa West 2.9mph /  4.7km/h 10.0mph /  16.1km/h 2% 0.00in /  0mm 279.0 W/m2
17:38 85.6 °F /  29.8 °C -12.3 °F /  -24.6 °C 29.79in /  1008.7hPa West 2.0mph /  3.2km/h 7.0mph /  11.3km/h 2% 0.00in /  0mm 258.0 W/m2
17:44 85.5 °F /  29.7 °C -12.5 °F /  -24.7 °C 29.79in /  1008.7hPa West 4.9mph /  7.9km/h 7.0mph /  11.3km/h 2% 0.00in /  0mm 236.0 W/m2
17:49 85.3 °F /  29.6 °C -12.5 °F /  -24.7 °C 29.80in /  1009hPa West 6.9mph /  11.1km/h 7.0mph /  11.3km/h 2% 0.00in /  0mm 216.0 W/m2
17:54 85.3 °F /  29.6 °C -12.5 °F /  -24.7 °C 29.80in /  1009hPa West 6.0mph /  9.7km/h 7.0mph /  11.3km/h 2% 0.00in /  0mm 197.0 W/m2
17:59 85.3 °F /  29.6 °C -12.5 °F /  -24.7 °C 29.80in /  1009hPa SW 4.0mph /  6.4km/h 8.0mph /  12.9km/h 2% 0.00in /  0mm 174.0 W/m2
18:04 84.7 °F /  29.3 °C -12.8 °F /  -24.9 °C 29.80in /  1009hPa West 8.9mph /  14.3km/h 15.0mph /  24.1km/h 2% 0.00in /  0mm 146.0 W/m2
18:09 84.4 °F /  29.1 °C -13.0 °F /  -25 °C 29.80in /  1009hPa Calm   3.0mph /  4.8km/h 2% 0.00in /  0mm 128.0 W/m2
18:14 84.0 °F /  28.9 °C -13.4 °F /  -25.2 °C 29.80in /  1009hPa SW 2.0mph /  3.2km/h 10.0mph /  16.1km/h 2% 0.00in /  0mm 104.0 W/m2
18:19 83.5 °F /  28.6 °C -13.7 °F /  -25.4 °C 29.80in /  1009hPa WSW 4.9mph /  7.9km/h 8.0mph /  12.9km/h 2% 0.00in /  0mm 81.0 W/m2
18:24 82.9 °F /  28.3 °C -14.1 °F /  -25.6 °C 29.81in /  1009.4hPa Calm   13.0mph /  20.9km/h 2% 0.00in /  0mm 60.0 W/m2
18:29 82.4 °F /  28 °C -14.3 °F /  -25.7 °C 29.81in /  1009.4hPa SW 6.0mph /  9.7km/h 9.0mph /  14.5km/h 2% 0.00in /  0mm 42.0 W/m2
18:34 81.5 °F /  27.5 °C -15.0 °F /  -26.1 °C 29.82in /  1009.7hPa WNW 2.9mph /  4.7km/h 8.0mph /  12.9km/h 2% 0.00in /  0mm 21.0 W/m2
18:39 80.6 °F /  27 °C -15.5 °F /  -26.4 °C 29.82in /  1009.7hPa West 4.9mph /  7.9km/h 7.0mph /  11.3km/h 2% 0.00in /  0mm 14.0 W/m2
18:44 79.9 °F /  26.6 °C -15.9 °F /  -26.6 °C 29.82in /  1009.7hPa West 6.0mph /  9.7km/h 7.0mph /  11.3km/h 2% 0.00in /  0mm 9.0 W/m2
18:49 79.3 °F /  26.3 °C -16.2 °F /  -26.8 °C 29.82in /  1009.7hPa West 14.1mph /  22.7km/h 14.1mph /  22.7km/h 2% 0.00in /  0mm 5.0 W/m2
18:54 78.8 °F /  26 °C -16.6 °F /  -27 °C 29.83in /  1010hPa WSW 2.9mph /  4.7km/h 9.0mph /  14.5km/h 2% 0.00in /  0mm 0.0 W/m2
18:59 78.4 °F /  25.8 °C -17.0 °F /  -27.2 °C 29.83in /  1010hPa WSW 2.9mph /  4.7km/h 6.0mph /  9.7km/h 2% 0.00in /  0mm 0.0 W/m2
19:04 78.1 °F /  25.6 °C -17.1 °F /  -27.3 °C 29.83in /  1010hPa WSW 4.0mph /  6.4km/h 7.0mph /  11.3km/h 2% 0.00in /  0mm 0.0 W/m2
19:09 77.5 °F /  25.3 °C -17.5 °F /  -27.5 °C 29.84in /  1010.4hPa Calm   10.0mph /  16.1km/h 2% 0.00in /  0mm 0.0 W/m2
19:14 77.2 °F /  25.1 °C -17.7 °F /  -27.6 °C 29.83in /  1010hPa WSW 4.9mph /  7.9km/h 9.0mph /  14.5km/h 2% 0.00in /  0mm 0.0 W/m2
19:19 76.8 °F /  24.9 °C -17.9 °F /  -27.7 °C 29.84in /  1010.4hPa SSW 2.9mph /  4.7km/h 8.0mph /  12.9km/h 2% 0.00in /  0mm 0.0 W/m2
19:24 76.6 °F /  24.8 °C -18.0 °F /  -27.8 °C 29.84in /  1010.4hPa WNW 2.0mph /  3.2km/h 7.0mph /  11.3km/h 2% 0.00in /  0mm 0.0 W/m2
19:30 76.5 °F /  24.7 °C -18.2 °F /  -27.9 °C 29.84in /  1010.4hPa Calm   7.0mph /  11.3km/h 2% 0.00in /  0mm 0.0 W/m2
19:35 76.1 °F /  24.5 °C -18.4 °F /  -28 °C 29.85in /  1010.7hPa Calm   1.0mph /  1.6km/h 2% 0.00in /  0mm 0.0 W/m2
19:40 75.7 °F /  24.3 °C -18.6 °F /  -28.1 °C 29.85in /  1010.7hPa Calm   3.0mph /  4.8km/h 2% 0.00in /  0mm 0.0 W/m2
19:45 75.4 °F /  24.1 °C -18.8 °F /  -28.2 °C 29.85in /  1010.7hPa Calm   5.0mph /  8km/h 2% 0.00in /  0mm 0.0 W/m2
19:51 75.0 °F /  23.9 °C -19.1 °F /  -28.4 °C 29.85in /  1010.7hPa Calm   2.0mph /  3.2km/h 2% 0.00in /  0mm 0.0 W/m2
19:56 74.8 °F /  23.8 °C -11.2 °F /  -24 °C 29.86in /  1011.1hPa Calm     3% 0.00in /  0mm 0.0 W/m2
20:02 74.5 °F /  23.6 °C -11.4 °F /  -24.1 °C 29.86in /  1011.1hPa Calm   1.0mph /  1.6km/h 3% 0.00in /  0mm 0.0 W/m2
20:07 74.1 °F /  23.4 °C -11.7 °F /  -24.3 °C 29.86in /  1011.1hPa Calm   1.0mph /  1.6km/h 3% 0.00in /  0mm 0.0 W/m2
20:12 73.9 °F /  23.3 °C -6.0 °F /  -21.1 °C 29.87in /  1011.4hPa Calm     4% 0.00in /  0mm 0.0 W/m2
20:18 73.6 °F /  23.1 °C -6.2 °F /  -21.2 °C 29.87in /  1011.4hPa NW 0.9mph /  1.4km/h 4.0mph /  6.4km/h 4% 0.00in /  0mm 0.0 W/m2
20:23 73.4 °F /  23 °C -6.3 °F /  -21.3 °C 29.87in /  1011.4hPa Calm     4% 0.00in /  0mm 0.0 W/m2
20:28 73.2 °F /  22.9 °C -6.5 °F /  -21.4 °C 29.87in /  1011.4hPa Calm   1.0mph /  1.6km/h 4% 0.00in /  0mm 0.0 W/m2
20:33 72.9 °F /  22.7 °C -2.0 °F /  -18.9 °C 29.88in /  1011.7hPa Calm     5% 0.00in /  0mm 0.0 W/m2
20:38 72.7 °F /  22.6 °C -2.2 °F /  -19 °C 29.87in /  1011.4hPa Calm     5% 0.00in /  0mm 0.0 W/m2
20:43 72.3 °F /  22.4 °C -2.4 °F /  -19.1 °C 29.87in /  1011.4hPa Calm   2.0mph /  3.2km/h 5% 0.00in /  0mm 0.0 W/m2
20:48 72.1 °F /  22.3 °C 1.2 °F /  -17.1 °C 29.88in /  1011.7hPa Calm     6% 0.00in /  0mm 0.0 W/m2
20:53 72.0 °F /  22.2 °C 1.2 °F /  -17.1 °C 29.88in /  1011.7hPa Calm     6% 0.00in /  0mm 0.0 W/m2
20:58 71.4 °F /  21.9 °C 4.1 °F /  -15.5 °C 29.88in /  1011.7hPa Calm     7% 0.00in /  0mm 0.0 W/m2
21:02 71.1 °F /  21.7 °C 3.9 °F /  -15.6 °C 29.88in /  1011.7hPa Calm     7% 0.00in /  0mm 0.0 W/m2
21:07 70.5 °F /  21.4 °C 3.4 °F /  -15.9 °C 29.88in /  1011.7hPa Calm     7% 0.00in /  0mm 0.0 W/m2
21:12 70.2 °F /  21.2 °C 3.2 °F /  -16 °C 29.88in /  1011.7hPa Calm     7% 0.00in /  0mm 0.0 W/m2
21:18 69.6 °F /  20.9 °C 2.8 °F /  -16.2 °C 29.88in /  1011.7hPa Calm     7% 0.00in /  0mm 0.0 W/m2
21:23 69.3 °F /  20.7 °C 5.4 °F /  -14.8 °C 29.88in /  1011.7hPa Calm     8% 0.00in /  0mm 0.0 W/m2
21:28 68.9 °F /  20.5 °C 5.2 °F /  -14.9 °C 29.88in /  1011.7hPa Calm     8% 0.00in /  0mm 0.0 W/m2
21:33 68.7 °F /  20.4 °C 7.5 °F /  -13.6 °C 29.88in /  1011.7hPa Calm     9% 0.00in /  0mm 0.0 W/m2
21:38 68.4 °F /  20.2 °C 7.3 °F /  -13.7 °C 29.88in /  1011.7hPa Calm     9% 0.00in /  0mm 0.0 W/m2
21:43 67.8 °F /  19.9 °C 7.0 °F /  -13.9 °C 29.88in /  1011.7hPa Calm     9% 0.00in /  0mm 0.0 W/m2
21:48 67.5 °F /  19.7 °C 9.0 °F /  -12.8 °C 29.88in /  1011.7hPa Calm     10% 0.00in /  0mm 0.0 W/m2
21:53 66.9 °F /  19.4 °C 8.6 °F /  -13 °C 29.88in /  1011.7hPa Calm     10% 0.00in /  0mm 0.0 W/m2
21:58 66.4 °F /  19.1 °C 8.1 °F /  -13.3 °C 29.88in /  1011.7hPa Calm     10% 0.00in /  0mm 0.0 W/m2
22:04 65.8 °F /  18.8 °C 7.7 °F /  -13.5 °C 29.88in /  1011.7hPa Calm     10% 0.00in /  0mm 0.0 W/m2
22:09 65.3 °F /  18.5 °C 7.3 °F /  -13.7 °C 29.88in /  1011.7hPa Calm     10% 0.00in /  0mm 0.0 W/m2
22:14 64.8 °F /  18.2 °C 9.0 °F /  -12.8 °C 29.88in /  1011.7hPa Calm     11% 0.00in /  0mm 0.0 W/m2
22:19 64.2 °F /  17.9 °C 8.6 °F /  -13 °C 29.89in /  1012.1hPa Calm     11% 0.00in /  0mm 0.0 W/m2
22:24 63.9 °F /  17.7 °C 10.2 °F /  -12.1 °C 29.89in /  1012.1hPa Calm     12% 0.00in /  0mm 0.0 W/m2
22:29 63.5 °F /  17.5 °C 8.1 °F /  -13.3 °C 29.89in /  1012.1hPa Calm     11% 0.00in /  0mm 0.0 W/m2
22:34 63.1 °F /  17.3 °C 9.7 °F /  -12.4 °C 29.88in /  1011.7hPa Calm     12% 0.00in /  0mm 0.0 W/m2
22:39 62.8 °F /  17.1 °C 9.3 °F /  -12.6 °C 29.88in /  1011.7hPa Calm     12% 0.00in /  0mm 0.0 W/m2
22:44 62.2 °F /  16.8 °C 9.0 °F /  -12.8 °C 29.88in /  1011.7hPa Calm     12% 0.00in /  0mm 0.0 W/m2
22:49 62.1 °F /  16.7 °C 10.6 °F /  -11.9 °C 29.88in /  1011.7hPa Calm     13% 0.00in /  0mm 0.0 W/m2
22:55 61.5 °F /  16.4 °C 10.2 °F /  -12.1 °C 29.88in /  1011.7hPa Calm     13% 0.00in /  0mm 0.0 W/m2
23:00 61.3 °F /  16.3 °C 10.0 °F /  -12.2 °C 29.88in /  1011.7hPa Calm     13% 0.00in /  0mm 0.0 W/m2
23:05 61.0 °F /  16.1 °C 11.5 °F /  -11.4 °C 29.88in /  1011.7hPa Calm     14% 0.00in /  0mm 0.0 W/m2
23:10 60.6 °F /  15.9 °C 11.1 °F /  -11.6 °C 29.88in /  1011.7hPa Calm     14% 0.00in /  0mm 0.0 W/m2
23:15 60.6 °F /  15.9 °C 9.5 °F /  -12.5 °C 29.88in /  1011.7hPa Calm     13% 0.00in /  0mm 0.0 W/m2
23:21 61.0 °F /  16.1 °C 9.7 °F /  -12.4 °C 29.88in /  1011.7hPa Calm     13% 0.00in /  0mm 0.0 W/m2
23:26 61.2 °F /  16.2 °C 9.9 °F /  -12.3 °C 29.88in /  1011.7hPa Calm     13% 0.00in /  0mm 0.0 W/m2
23:31 61.0 °F /  16.1 °C 11.5 °F /  -11.4 °C 29.88in /  1011.7hPa Calm     14% 0.00in /  0mm 0.0 W/m2
23:37 61.0 °F /  16.1 °C 11.5 °F /  -11.4 °C 29.88in /  1011.7hPa Calm     14% 0.00in /  0mm 0.0 W/m2
23:42 60.6 °F /  15.9 °C 11.1 °F /  -11.6 °C 29.88in /  1011.7hPa Calm     14% 0.00in /  0mm 0.0 W/m2
23:47 60.4 °F /  15.8 °C 12.6 °F /  -10.8 °C 29.88in /  1011.7hPa Calm     15% 0.00in /  0mm 0.0 W/m2
23:52 60.1 °F /  15.6 °C 10.8 °F /  -11.8 °C 29.88in /  1011.7hPa Calm     14% 0.00in /  0mm 0.0 W/m2
23:57 60.1 °F /  15.6 °C 10.8 °F /  -11.8 °C 29.88in /  1011.7hPa Calm     14% 0.00in /  0mm 0.0 W/m2
Olympia, Windhoek, Namibia
Compliments of Weather Underground - 3.25 mb